Terminal Aerodrome Forecast
Issued by NWS

Home | Current Version | Previous Version | Text Only | Print | Product List | Glossary On
Versions: 1 2 3 4 5 6 7 8 9 10 11 12
000
FTPA31 PHFO 222347
TAFHJR
TAF
PHJR 222347Z 2300/2324 14009G16KT P6SM SCT035 BKN050
     FM230400 VRB03KT P6SM SCT040
     FM232100 14008KT P6SM SCT035 BKN050=

USA.gov is the U.S. government's official web portal to all federal, state and local government web resources and services.